METAR UND TAF INFORMATION

METAR FOR LTFJ
ADDS - METARS form results

(0239 UTC 26 June 2022)
Data provider http://aviationweather.gov/metar/data/
 
METAR text: LTFJ 260220Z 00000KT 9999 FEW025 18/17 Q1013 NOSIG RMK RWY24 01002KT
Conditions at: LTFJ (SABIHA GOKCEN , TR) observed 0220 UTC 26 June 2022
Temperature: 18.0°C (64°F)
Dewpoint: 17.0°C (63°F) [RH = 94%]
Pressure (altimeter): 29.91 inches Hg (1013.0 mb)
Winds: calm
Visibility: 6 or more miles (10+ km)
Ceiling: at least 12,000 feet AGL
Clouds: few clouds at 2500 feet AGL
Weather: no significant weather observed at this time

METAR text: LTFJ 260150Z 06004KT 9999 FEW025 17/17 Q1013 NOSIG RMK RWY24 03002KT
Conditions at: LTFJ (SABIHA GOKCEN , TR) observed 0150 UTC 26 June 2022
Temperature: 17.0°C (63°F)
Dewpoint: 17.0°C (63°F) [RH = 100%]
Pressure (altimeter): 29.91 inches Hg (1013.0 mb)
Winds: from the ENE (60 degrees) at 5 MPH (4 knots; 2.1 m/s)
Visibility: 6 or more miles (10+ km)
Ceiling: at least 12,000 feet AGL
Clouds: few clouds at 2500 feet AGL
Weather: no significant weather observed at this time

Forecast for: LTFJ (SABIHA GOKCEN , TR)
Text: TAF LTFJ 252240Z 2600/2624 01005KT CAVOK
Forecast period: 0000 UTC 26 June 2022 to 0000 UTC 27 June 2022
Forecast type: FROM: standard forecast or significant change
Winds: from the N (10 degrees) at 6 MPH (5 knots; 2.6 m/s)
Visibility: 6 or more miles (10+ km)
Ceiling: unknown
Clouds: missing
Weather: NSW  (no significant weather)
Text: BECMG 2600/2603 SCT027
Forecast period: 0000 to 0700 UTC 26 June 2022
Forecast type: BECOMING: Conditions expected to become as follows by 0300 UTC 26 June 2022
Winds: from the N (10 degrees) at 6 MPH (5 knots; 2.6 m/s)
Visibility: 6 or more miles (10+ km)
Ceiling: at least 12,000 feet AGL
Clouds: scattered clouds at 2700 feet AGL
Weather: NSW  (no significant weather)
Text: BECMG 2607/2610 02015KT CAVOK
Forecast period: 0700 UTC 26 June 2022 to 0000 UTC 27 June 2022
Forecast type: BECOMING: Conditions expected to become as follows by 1000 UTC 26 June 2022
Winds: from the NNE (20 degrees) at 17 MPH (15 knots; 7.7 m/s)
Visibility: 6 or more miles (10+ km)
Ceiling: unknown
Clouds: missing
Weather: NSW  (no significant weather)

 FLUGHAFENKARTE

 RUNWAY INFORMATION
Runway 06 Runway length 9843 ft Runway width 148 ft
Runway elevation 293 ft Runway displaced threshold 0 ft Runway heading 64
Runway 24 Runway length 9843 ft Runway width 148 ft
Runway elevation 304 ft Runway displaced threshold 0 ft Runway heading 244

 AIRPORT FREQUENCIES
Type ATIS Name ATIS Frequency 128.55 MHZ
Type GND Name GND Frequency 121.75 MHZ
Type TWR Name TWR Frequency 118.8 MHZ
Type TWR Name TWR Frequency 37.877 MHZ

 AIRPORT NEAR NAVIGATION AIDS
Type NDB Name Sabiha Gokcen Frequency 347 KHZ
Type VOR-DME Name Sabiha Gokcen Frequency 108800 KHZ